createdAt,value
2022-09-20T00:01:29.557Z,95179.25
2022-09-20T00:03:59.484Z,95186.41
2022-09-20T00:06:31.170Z,95189.00
2022-09-20T00:09:01.599Z,95181.59
2022-09-20T00:11:32.488Z,95185.41
2022-09-20T00:14:02.893Z,95186.22
2022-09-20T00:16:35.629Z,95188.88
2022-09-20T00:19:06.409Z,95177.72
2022-09-20T00:21:36.570Z,95185.13
2022-09-20T00:24:06.034Z,95181.16
2022-09-20T00:26:34.769Z,95183.81
2022-09-20T00:29:03.519Z,95181.69
2022-09-20T00:31:33.352Z,95185.03
2022-09-20T00:34:18.736Z,95190.69
2022-09-20T00:36:47.360Z,95186.53
2022-09-20T00:39:17.221Z,95192.69
2022-09-20T00:41:45.850Z,95192.06
2022-09-20T00:44:55.078Z,95186.09
2022-09-20T00:47:32.136Z,95189.44
2022-09-20T00:50:06.907Z,95185.19
2022-09-20T00:52:36.815Z,95171.88
2022-09-20T00:55:09.089Z,95182.47
2022-09-20T00:57:38.838Z,95183.06
2022-09-20T01:00:09.484Z,95188.69
2022-09-20T01:02:43.200Z,95181.41
2022-09-20T01:05:13.721Z,95193.31
2022-09-20T01:07:44.343Z,95180.25
2022-09-20T01:10:12.556Z,95188.59
2022-09-20T01:12:41.641Z,95192.03
2022-09-20T01:15:11.139Z,95186.22
2022-09-20T01:17:44.009Z,95194.16
2022-09-20T01:20:20.748Z,95187.69
2022-09-20T01:23:13.260Z,95197.31
2022-09-20T01:25:56.096Z,95193.25
2022-09-20T01:28:27.779Z,95181.72
2022-09-20T01:31:04.682Z,95192.19
2022-09-20T01:33:43.596Z,95194.44
2022-09-20T01:36:18.505Z,95194.81
2022-09-20T01:38:56.434Z,95190.81
2022-09-20T01:41:29.947Z,95190.75
2022-09-20T01:44:08.039Z,95190.38
2022-09-20T01:46:37.946Z,95139.28
2022-09-20T01:49:30.249Z,95193.66
2022-09-20T01:52:33.564Z,95047.25
2022-09-20T01:55:59.053Z,95192.19
2022-09-20T01:59:23.307Z,95201.72
2022-09-20T02:02:18.289Z,95191.03
2022-09-20T02:05:25.275Z,95201.78
2022-09-20T02:08:15.553Z,95193.72
2022-09-20T02:11:14.333Z,95193.84
2022-09-20T02:14:06.485Z,95192.38
2022-09-20T02:16:54.815Z,95185.91
2022-09-20T02:19:35.534Z,95194.91
2022-09-20T02:22:17.981Z,95192.41
2022-09-20T02:24:54.838Z,95189.47
2022-09-20T02:27:28.265Z,95187.84
2022-09-20T02:30:16.449Z,95199.88
2022-09-20T02:33:16.539Z,95198.09
2022-09-20T02:35:58.245Z,95191.56
2022-09-20T02:38:43.740Z,95196.97
2022-09-20T02:41:48.495Z,95203.59
2022-09-20T02:44:27.935Z,95213.22
2022-09-20T02:47:07.728Z,95210.09
2022-09-20T02:49:45.692Z,95202.94
2022-09-20T02:52:22.238Z,95209.16
2022-09-20T02:54:59.998Z,95201.97
2022-09-20T02:57:39.327Z,95201.41
2022-09-20T03:00:13.823Z,95210.50
2022-09-20T03:02:52.735Z,95216.47
2022-09-20T03:05:26.043Z,95222.03
2022-09-20T03:08:13.130Z,95237.63
2022-09-20T03:10:51.949Z,95231.00
2022-09-20T03:13:32.599Z,95235.66
2022-09-20T03:16:10.246Z,95227.97
2022-09-20T03:18:49.026Z,95227.19
2022-09-20T03:21:30.909Z,95229.03
2022-09-20T03:24:10.507Z,95231.50
2022-09-20T03:26:48.533Z,95238.50
2022-09-20T03:29:34.098Z,95229.81
2022-09-20T03:32:22.278Z,95230.88
2022-09-20T03:35:04.802Z,95223.66
2022-09-20T03:37:52.236Z,95231.53
2022-09-20T03:40:47.416Z,95235.84
2022-09-20T03:43:28.823Z,95247.91
2022-09-20T03:46:13.881Z,95240.66
2022-09-20T03:49:04.421Z,95240.47
2022-09-20T03:51:46.621Z,95236.84
2022-09-20T03:54:40.532Z,95230.81
2022-09-20T03:57:41.195Z,95237.13
2022-09-20T04:00:23.920Z,95052.75
2022-09-20T04:03:09.285Z,95256.53
2022-09-20T04:05:48.359Z,95245.19
2022-09-20T04:08:31.537Z,95233.38
2022-09-20T04:11:10.248Z,95237.38
2022-09-20T04:13:41.668Z,95246.78
2022-09-20T04:16:24.253Z,95249.13
2022-09-20T04:18:58.104Z,95249.66
2022-09-20T04:21:33.191Z,95252.66
2022-09-20T04:24:10.976Z,95261.22
2022-09-20T04:26:45.963Z,95268.28
2022-09-20T04:29:28.632Z,95275.31
2022-09-20T04:32:04.627Z,95268.91
2022-09-20T04:34:57.335Z,95280.78
2022-09-20T04:37:33.554Z,95278.69
2022-09-20T04:40:24.908Z,95276.22
2022-09-20T04:43:53.834Z,95274.38
2022-09-20T04:47:03.424Z,95280.16
2022-09-20T04:49:58.644Z,95268.63
2022-09-20T04:53:02.359Z,95262.38
2022-09-20T04:55:50.405Z,95198.91
2022-09-20T04:58:47.094Z,95268.78
2022-09-20T05:01:51.364Z,95264.53
2022-09-20T05:05:03.851Z,95267.00
2022-09-20T05:08:10.050Z,95271.00
2022-09-20T05:11:09.848Z,95273.09
2022-09-20T05:13:52.458Z,95274.88
2022-09-20T05:16:26.845Z,95274.53
2022-09-20T05:19:13.251Z,95270.47
2022-09-20T05:21:51.768Z,95265.03
2022-09-20T05:24:45.072Z,95268.28
2022-09-20T05:27:30.412Z,95280.69
2022-09-20T05:30:06.643Z,95288.94
2022-09-20T05:32:45.474Z,95234.16
2022-09-20T05:35:22.314Z,95279.00
2022-09-20T05:37:58.509Z,95276.88
2022-09-20T05:40:33.212Z,95251.41
2022-09-20T05:43:11.442Z,95276.47
2022-09-20T05:46:06.720Z,95280.06
2022-09-20T05:48:45.345Z,95268.44
2022-09-20T05:51:28.488Z,95260.50
2022-09-20T05:54:28.764Z,95256.59
2022-09-20T05:57:12.090Z,95266.94
2022-09-20T05:59:55.661Z,95244.78
2022-09-20T06:02:40.329Z,95255.13
2022-09-20T06:05:16.201Z,95259.47
2022-09-20T06:08:22.657Z,95226.41
2022-09-20T06:11:08.259Z,95275.75
2022-09-20T06:14:00.409Z,95278.28
2022-09-20T06:16:39.466Z,95273.59
2022-09-20T06:19:19.254Z,95263.72
2022-09-20T06:21:53.365Z,95278.31
2022-09-20T06:24:32.303Z,95292.91
2022-09-20T06:27:05.055Z,95294.31
2022-09-20T06:29:37.071Z,95295.69
2022-09-20T06:32:06.868Z,95285.28
2022-09-20T06:34:35.584Z,95292.75
2022-09-20T06:37:31.111Z,95294.59
2022-09-20T06:40:24.062Z,95285.22
2022-09-20T06:42:54.117Z,95289.09
2022-09-20T06:45:22.409Z,95283.56
2022-09-20T06:47:52.068Z,95283.72
2022-09-20T06:50:20.722Z,95281.19
2022-09-20T06:52:49.402Z,95276.78
2022-09-20T06:55:26.073Z,95285.63
2022-09-20T06:57:56.857Z,95287.81
2022-09-20T07:00:25.467Z,95291.63
2022-09-20T07:02:56.814Z,95288.97
2022-09-20T07:05:26.722Z,95290.66
2022-09-20T07:07:58.685Z,95298.19
2022-09-20T07:10:28.872Z,95222.53
2022-09-20T07:12:59.143Z,95292.03
2022-09-20T07:15:28.342Z,95282.28
2022-09-20T07:17:58.076Z,95281.13
2022-09-20T07:20:26.347Z,95262.41
2022-09-20T07:22:54.869Z,95276.72
2022-09-20T07:25:23.681Z,95273.44
2022-09-20T07:27:52.354Z,95261.63
2022-09-20T07:30:21.756Z,95273.13
2022-09-20T07:32:50.529Z,95134.44
2022-09-20T07:35:20.169Z,95254.34
2022-09-20T07:37:48.446Z,95271.25
2022-09-20T07:40:17.324Z,95199.66
2022-09-20T07:42:46.171Z,95232.47
2022-09-20T07:45:14.393Z,95248.00
2022-09-20T07:47:45.009Z,95262.75
2022-09-20T07:50:13.250Z,95253.25
2022-09-20T07:52:42.912Z,95257.47
2022-09-20T07:55:11.205Z,95255.47
2022-09-20T07:57:40.177Z,95257.59
2022-09-20T08:00:10.696Z,95257.25
2022-09-20T08:02:38.961Z,95247.16
2022-09-20T08:05:08.115Z,95250.41
2022-09-20T08:07:36.418Z,95244.22
2022-09-20T08:10:07.259Z,95249.50
2022-09-20T08:15:24.633Z,95224.28
2022-09-20T08:17:52.916Z,95239.19
2022-09-20T08:20:21.227Z,95230.97
2022-09-20T08:23:06.335Z,95224.78
2022-09-20T08:25:39.617Z,95226.66
2022-09-20T08:28:07.844Z,95172.34
2022-09-20T08:30:36.134Z,95217.84
2022-09-20T08:33:07.057Z,95221.97
2022-09-20T08:35:38.105Z,95159.72
2022-09-20T08:41:01.852Z,95220.00
2022-09-20T08:43:36.742Z,95207.00
2022-09-20T08:46:07.436Z,95207.88
2022-09-20T08:48:35.792Z,95138.53
2022-09-20T08:51:06.347Z,95207.09
2022-09-20T08:53:35.779Z,95199.16
2022-09-20T08:56:09.357Z,95204.22
2022-09-20T08:58:38.374Z,95177.88
2022-09-20T09:01:07.715Z,95192.03
2022-09-20T09:03:36.075Z,95188.00
2022-09-20T09:06:08.815Z,95191.28
2022-09-20T09:08:40.474Z,95182.75
2022-09-20T09:11:15.637Z,95176.47
2022-09-20T09:13:53.389Z,95151.66
2022-09-20T09:16:28.720Z,95162.00
2022-09-20T09:19:33.262Z,95160.47
2022-09-20T09:22:03.867Z,95157.56
2022-09-20T09:24:32.534Z,95155.03
2022-09-20T09:27:10.372Z,95157.25
2022-09-20T09:29:51.133Z,95064.84
2022-09-20T09:32:25.042Z,95142.66
2022-09-20T09:34:53.332Z,95136.72
2022-09-20T09:37:28.819Z,95119.38
2022-09-20T09:40:17.791Z,95122.06
2022-09-20T09:42:56.717Z,95121.13
2022-09-20T09:45:36.258Z,95116.56
2022-09-20T09:48:18.444Z,95113.44
2022-09-20T09:50:46.860Z,95110.16
2022-09-20T09:53:17.342Z,95116.88
2022-09-20T09:56:13.880Z,95124.50
2022-09-20T09:58:58.492Z,95116.78
2022-09-20T10:01:39.845Z,95120.28
2022-09-20T10:04:17.195Z,95120.50
2022-09-20T10:06:54.797Z,95123.28
2022-09-20T10:09:39.084Z,95121.09
2022-09-20T10:12:20.835Z,95113.75
2022-09-20T10:15:08.274Z,95110.44
2022-09-20T10:17:47.586Z,95112.03
2022-09-20T10:20:33.756Z,95105.38
2022-09-20T10:23:51.485Z,95109.94
2022-09-20T10:26:09.987Z,95098.56
2022-09-20T10:28:50.529Z,95118.66
2022-09-20T10:31:46.313Z,95004.44
2022-09-20T10:34:42.729Z,95099.47
2022-09-20T10:37:18.671Z,95041.78
2022-09-20T10:39:51.256Z,95098.53
2022-09-20T10:42:45.684Z,95091.66
2022-09-20T10:45:36.342Z,95095.03
2022-09-20T10:48:18.227Z,95036.50
2022-09-20T10:50:53.964Z,95086.47
2022-09-20T10:53:30.221Z,95084.78
2022-09-20T10:56:15.866Z,95064.53
2022-09-20T10:59:06.807Z,95058.19
2022-09-20T11:01:42.414Z,95069.88
2022-09-20T11:04:37.333Z,95026.94
2022-09-20T11:07:13.430Z,95071.13
2022-09-20T11:09:49.123Z,95050.09
2022-09-20T11:12:27.017Z,94976.94
2022-09-20T11:14:59.191Z,95055.47
2022-09-20T11:17:33.098Z,95058.84
2022-09-20T11:20:08.957Z,95060.75
2022-09-20T11:22:44.054Z,95048.97
2022-09-20T11:25:22.327Z,95060.63
2022-09-20T11:27:56.895Z,95057.06
2022-09-20T11:30:25.977Z,95035.34
2022-09-20T11:32:58.103Z,95048.41
2022-09-20T11:35:35.533Z,95041.66
2022-09-20T11:38:12.067Z,95047.25
2022-09-20T11:40:44.411Z,95008.13
2022-09-20T11:43:15.019Z,95031.88
2022-09-20T11:45:46.402Z,94994.59
2022-09-20T11:48:21.431Z,94997.19
2022-09-20T11:51:21.616Z,95031.06
2022-09-20T11:54:16.490Z,94897.94
2022-09-20T11:56:52.609Z,94988.63
2022-09-20T11:59:30.877Z,94892.88
2022-09-20T12:02:01.829Z,94991.91
2022-09-20T12:04:33.633Z,95023.28
2022-09-20T12:07:10.492Z,95014.31
2022-09-20T12:09:44.051Z,95020.19
2022-09-20T12:12:20.276Z,95026.03
2022-09-20T12:14:56.598Z,95024.09
2022-09-20T12:17:57.895Z,95020.56
2022-09-20T12:21:03.569Z,94983.88
2022-09-20T12:24:19.122Z,95023.81
2022-09-20T12:26:49.498Z,95019.34
2022-09-20T12:29:57.467Z,95043.78
2022-09-20T12:32:43.001Z,95035.94
2022-09-20T12:35:59.454Z,95031.72
2022-09-20T12:38:48.310Z,95019.78
2022-09-20T12:41:27.900Z,95030.06
2022-09-20T12:44:20.853Z,95028.13
2022-09-20T12:46:54.382Z,95025.63
2022-09-20T12:49:50.160Z,95020.34
2022-09-20T12:52:52.373Z,95020.63
2022-09-20T12:55:46.895Z,95023.38
2022-09-20T12:58:36.026Z,95012.34
2022-09-20T13:01:31.166Z,95013.78
2022-09-20T13:04:37.939Z,95017.41
2022-09-20T13:07:34.491Z,95025.97
2022-09-20T13:10:07.766Z,95008.78
2022-09-20T13:12:40.574Z,95025.31
2022-09-20T13:15:18.465Z,95027.34
2022-09-20T13:17:50.390Z,95018.94
2022-09-20T13:20:23.867Z,95017.50
2022-09-20T13:22:59.554Z,95011.56
2022-09-20T13:25:29.643Z,95028.16
2022-09-20T13:28:11.335Z,95023.63
2022-09-20T13:30:42.042Z,95019.75
2022-09-20T13:33:22.071Z,95016.91
2022-09-20T13:35:54.642Z,95021.13
2022-09-20T13:38:30.056Z,95021.63
2022-09-20T13:41:09.202Z,95019.88
2022-09-20T13:43:41.403Z,95021.13
2022-09-20T13:46:13.209Z,95019.19
2022-09-20T13:48:41.546Z,95015.56
2022-09-20T13:51:19.931Z,95016.66
2022-09-20T13:53:48.500Z,95025.22
2022-09-20T13:56:22.885Z,95022.69
2022-09-20T13:58:52.842Z,95024.25
2022-09-20T14:01:30.179Z,95023.66
2022-09-20T14:04:04.811Z,95018.97
2022-09-20T14:06:33.752Z,95021.09
2022-09-20T14:09:10.409Z,95018.28
2022-09-20T14:11:41.095Z,95013.38
2022-09-20T14:14:12.404Z,95017.63
2022-09-20T14:16:47.153Z,95011.03
2022-09-20T14:19:20.209Z,95013.28
2022-09-20T14:21:49.736Z,95007.59
2022-09-20T14:24:35.719Z,95002.31
2022-09-20T14:27:07.475Z,95005.06
2022-09-20T14:29:41.370Z,94995.69
2022-09-20T14:32:22.334Z,95021.31
2022-09-20T14:35:03.033Z,95023.81
2022-09-20T14:37:33.636Z,95006.00
2022-09-20T14:40:05.085Z,95018.22
2022-09-20T14:42:37.713Z,95014.78
2022-09-20T14:45:07.452Z,95010.22
2022-09-20T14:47:41.615Z,94978.28
2022-09-20T14:50:25.346Z,95019.69
2022-09-20T14:53:21.674Z,95018.53
2022-09-20T14:56:10.635Z,95017.41
2022-09-20T14:59:04.114Z,95018.97
2022-09-20T15:01:32.737Z,95011.44
2022-09-20T15:04:08.943Z,95019.75
2022-09-20T15:06:39.111Z,95031.81
2022-09-20T15:09:08.058Z,95009.41
2022-09-20T15:11:36.363Z,95021.31
2022-09-20T15:14:04.581Z,95024.13
2022-09-20T15:16:33.612Z,95031.25
2022-09-20T15:19:04.676Z,95019.94
2022-09-20T15:21:33.162Z,95023.84
2022-09-20T15:24:01.468Z,95022.53
2022-09-20T15:26:32.998Z,95011.59
2022-09-20T15:29:01.359Z,95031.25
2022-09-20T15:31:29.736Z,94972.38
2022-09-20T15:33:57.990Z,95035.84
2022-09-20T15:36:32.105Z,95033.91
2022-09-20T15:39:00.999Z,95030.34
2022-09-20T15:41:31.408Z,95025.56
2022-09-20T15:44:00.109Z,95038.22
2022-09-20T15:46:28.575Z,95034.16
2022-09-20T15:49:00.449Z,95036.06
2022-09-20T15:51:31.518Z,95017.34
2022-09-20T15:54:01.623Z,95045.38
2022-09-20T15:56:31.630Z,95046.25
2022-09-20T15:59:01.756Z,95045.28
2022-09-20T16:01:32.556Z,95053.19
2022-09-20T16:04:01.579Z,95060.91
2022-09-20T16:06:33.544Z,95057.94
2022-09-20T16:09:01.895Z,95070.88
2022-09-20T16:11:30.395Z,95071.53
2022-09-20T16:14:02.724Z,95078.66
2022-09-20T16:16:38.953Z,95074.03
2022-09-20T16:19:24.065Z,95045.97
2022-09-20T16:21:58.113Z,95092.41
2022-09-20T16:24:28.926Z,95092.03
2022-09-20T16:26:57.452Z,95055.69
2022-09-20T16:29:26.713Z,95109.78
2022-09-20T16:31:56.257Z,95113.97
2022-09-20T16:34:29.844Z,95114.03
2022-09-20T16:37:03.569Z,95079.53
2022-09-20T16:39:38.498Z,95052.66
2022-09-20T16:42:09.444Z,95135.81
2022-09-20T16:44:39.028Z,95122.59
2022-09-20T16:47:13.917Z,95104.69
2022-09-20T16:49:42.431Z,95136.44
2022-09-20T16:52:12.952Z,95132.22
2022-09-20T16:54:41.723Z,95119.44
2022-09-20T16:57:10.931Z,95146.34
2022-09-20T16:59:40.114Z,95149.78
2022-09-20T17:02:12.036Z,95146.53
2022-09-20T17:04:42.207Z,95145.09
2022-09-20T17:07:12.846Z,95152.66
2022-09-20T17:09:41.839Z,95159.78
2022-09-20T17:12:10.811Z,95156.50
2022-09-20T17:14:40.468Z,95160.78
2022-09-20T17:17:09.776Z,95163.06
2022-09-20T17:19:38.035Z,95138.91
2022-09-20T17:22:07.412Z,95168.34
2022-09-20T17:24:37.581Z,95168.66
2022-09-20T17:27:07.132Z,95176.75
2022-09-20T17:29:35.544Z,95182.72
2022-09-20T17:32:04.205Z,95191.59
2022-09-20T17:34:33.095Z,95198.28
2022-09-20T17:37:03.717Z,95208.81
2022-09-20T17:39:32.532Z,95085.94
2022-09-20T17:42:02.921Z,95220.84
2022-09-20T17:44:35.571Z,95218.13
2022-09-20T17:47:04.034Z,95148.72
2022-09-20T17:49:32.297Z,95232.91
2022-09-20T17:52:02.038Z,95228.84
2022-09-20T17:54:30.671Z,95236.91
2022-09-20T17:56:59.221Z,95242.38
2022-09-20T17:59:29.078Z,95242.13
2022-09-20T18:01:57.580Z,95243.63
2022-09-20T18:04:25.930Z,95254.25
2022-09-20T18:06:55.624Z,95252.78
2022-09-20T18:09:25.746Z,95254.16
2022-09-20T18:12:17.569Z,95260.66
2022-09-20T18:14:48.658Z,95259.91
2022-09-20T18:17:17.413Z,95258.97
2022-09-20T18:19:45.647Z,95270.72
2022-09-20T18:22:14.490Z,95269.53
2022-09-20T18:24:42.699Z,95270.16
2022-09-20T18:27:11.428Z,95266.13
2022-09-20T18:29:39.809Z,95273.50
2022-09-20T18:32:09.575Z,95265.81
2022-09-20T18:34:38.750Z,95272.03
2022-09-20T18:37:13.781Z,95252.38
2022-09-20T18:39:43.437Z,95187.41
2022-09-20T18:42:11.816Z,95282.41
2022-09-20T18:44:43.891Z,95277.28
2022-09-20T18:47:14.240Z,95276.66
2022-09-20T18:49:42.510Z,95275.00
2022-09-20T18:52:12.525Z,95287.16
2022-09-20T18:54:41.019Z,95277.84
2022-09-20T18:57:12.076Z,95228.75
2022-09-20T18:59:49.711Z,95283.88
2022-09-20T19:02:40.302Z,95288.41
2022-09-20T19:05:17.530Z,95291.63
2022-09-20T19:08:00.468Z,95276.97
2022-09-20T19:10:40.614Z,95293.78
2022-09-20T19:13:22.844Z,95300.81
2022-09-20T19:16:16.955Z,95305.72
2022-09-20T19:19:15.389Z,95311.13
2022-09-20T19:21:53.972Z,95315.19
2022-09-20T19:24:34.258Z,95312.44
2022-09-20T19:27:02.808Z,95290.78
2022-09-20T19:29:33.385Z,95285.97
2022-09-20T19:32:03.036Z,95314.81
2022-09-20T19:34:34.266Z,95315.44
2022-09-20T19:37:23.772Z,95318.50
2022-09-20T19:40:08.046Z,95329.88
2022-09-20T19:42:53.398Z,95326.28
2022-09-20T19:45:32.699Z,95327.78
2022-09-20T19:48:08.385Z,95323.00
2022-09-20T19:50:45.477Z,95324.16
2022-09-20T19:53:15.308Z,95330.97
2022-09-20T19:55:48.326Z,95325.03
2022-09-20T19:58:18.227Z,95334.81
2022-09-20T20:00:47.904Z,95154.94
2022-09-20T20:03:17.354Z,95300.25
2022-09-20T20:05:55.286Z,95334.19
2022-09-20T20:08:28.287Z,95332.72
2022-09-20T20:11:04.614Z,95346.69
2022-09-20T20:13:56.062Z,95340.75
2022-09-20T20:16:33.823Z,95344.03
2022-09-20T20:19:14.654Z,95342.72
2022-09-20T20:21:52.689Z,95348.88
2022-09-20T20:24:32.694Z,95338.34
2022-09-20T20:27:01.274Z,95348.94
2022-09-20T20:29:29.524Z,95322.56
2022-09-20T20:31:58.225Z,95351.44
2022-09-20T20:34:27.709Z,95349.97
2022-09-20T20:37:01.073Z,95353.41
2022-09-20T20:39:31.712Z,95330.44
2022-09-20T20:42:02.500Z,95331.88
2022-09-20T20:44:31.240Z,95347.88
2022-09-20T20:46:59.620Z,95344.97
2022-09-20T20:49:28.234Z,95338.66
2022-09-20T20:51:58.606Z,95337.53
2022-09-20T20:54:27.078Z,95335.97
2022-09-20T20:56:55.272Z,95331.22
2022-09-20T20:59:24.537Z,95331.44
2022-09-20T21:01:52.857Z,95345.66
2022-09-20T21:04:21.834Z,95346.47
2022-09-20T21:06:50.522Z,95344.91
2022-09-20T21:09:20.125Z,95351.59
2022-09-20T21:11:48.550Z,95349.81
2022-09-20T21:14:17.165Z,95355.31
2022-09-20T21:16:45.634Z,95374.31
2022-09-20T21:19:15.783Z,95379.09
2022-09-20T21:21:46.096Z,95359.34
2022-09-20T21:24:17.528Z,95303.03
2022-09-20T21:26:48.613Z,95365.34
2022-09-20T21:29:17.548Z,95374.72
2022-09-20T21:31:47.096Z,95363.91
2022-09-20T21:34:16.585Z,95372.22
2022-09-20T21:36:45.231Z,95372.94
2022-09-20T21:39:13.880Z,95360.91
2022-09-20T21:41:42.622Z,95362.09
2022-09-20T21:44:12.387Z,95364.06
2022-09-20T21:46:42.113Z,95363.00
2022-09-20T21:49:11.596Z,95366.44
2022-09-20T21:51:41.564Z,95366.06
2022-09-20T21:54:11.077Z,95362.91
2022-09-20T21:56:41.003Z,95355.75
2022-09-20T21:59:09.596Z,95366.66
2022-09-20T22:01:41.420Z,95375.22
2022-09-20T22:04:11.228Z,95297.00
2022-09-20T22:06:40.752Z,95364.75
2022-09-20T22:09:11.507Z,95365.56
2022-09-20T22:11:41.743Z,95372.00
2022-09-20T22:14:11.248Z,95379.69
2022-09-20T22:16:42.395Z,95374.47
2022-09-20T22:19:13.051Z,95372.06
2022-09-20T22:21:42.660Z,95374.78
2022-09-20T22:24:12.648Z,95377.56
2022-09-20T22:26:43.797Z,95363.78
2022-09-20T22:29:12.063Z,95366.75
2022-09-20T22:31:45.606Z,95357.56
2022-09-20T22:34:16.932Z,95176.00
2022-09-20T22:36:45.280Z,95368.72
2022-09-20T22:39:14.448Z,95361.41
2022-09-20T22:41:43.183Z,95346.72
2022-09-20T22:44:12.047Z,95353.78
2022-09-20T22:46:41.851Z,95352.28
2022-09-20T22:49:10.860Z,95364.47
2022-09-20T22:51:39.533Z,95314.16
2022-09-20T22:54:10.662Z,95351.63
2022-09-20T22:56:41.316Z,95350.22
2022-09-20T22:59:11.053Z,95343.91
2022-09-20T23:01:42.918Z,95354.38
2022-09-20T23:04:12.888Z,95359.03
2022-09-20T23:06:42.700Z,95344.31
2022-09-20T23:09:12.935Z,95347.88
2022-09-20T23:11:44.187Z,95350.31
2022-09-20T23:14:14.206Z,95338.00
2022-09-20T23:16:44.997Z,95336.34
2022-09-20T23:19:14.086Z,95346.97
2022-09-20T23:21:43.624Z,95336.22
2022-09-20T23:24:13.854Z,95339.13
2022-09-20T23:26:43.502Z,95332.03
2022-09-20T23:29:13.229Z,95330.06
2022-09-20T23:31:46.050Z,95291.47
2022-09-20T23:34:15.961Z,95282.88
2022-09-20T23:36:44.742Z,95280.16
2022-09-20T23:39:13.640Z,95330.72
2022-09-20T23:41:45.787Z,95332.06
2022-09-20T23:44:16.843Z,95329.19
2022-09-20T23:46:46.430Z,95329.16
2022-09-20T23:49:14.673Z,95341.13
2022-09-20T23:51:42.977Z,95348.25
2022-09-20T23:54:11.220Z,95347.16
2022-09-20T23:56:40.290Z,95339.50
2022-09-20T23:59:08.491Z,95334.50
